Pagrindinis puslapis
METAR-TAF:

METAR-TAF

Oro uostai :

Port Isabel-Cameron County Airport

Port Isabel, Teksasas, Jungtinės Amerikos Valstijos

platuma: 26-09-33N, ilguma: 097-20-15W, Aukštis: 5 m

Dabartinis oras

Ataskaita buvo paskelbta 38 minutes, ne 06:53 UTC
Vėjas 3 kt iš Šiaurės Rytų
Temperatūra 24°C
Drėgmė 83%
Slėgis 1013 hPa
Matomumas: 16.1 km
Giedras dangus

METAR: KPIL 270653Z AUTO 04003KT 10SM CLR 24/21 A2991 RMK AO2 SLP128 T02390211

Laikas: 02:31 (07:31 UTC)


TAF: trūkstamas

Orai ataskaitas ir orų prognozės (METAR, TAF).

turimą stotys yra geltonos ir raudonos taškus žemėlapyje.

Perkelti pele per norėdami pamatyti stoties vardą.

Tada spustelėkite, norėdami matyti oro stebėjimo ir prognozės.

Norėdami pakeisti žemėlapį: spustelėkite ant žalios mygtukų su juodo kryžiaus žemyn,; žalią mygtuką su brūkšneliu, jei norite nutolinti; arba žalių rodyklių gretimoms žemėlapius.


METAR-TAF: